sensor_id;sensor_type;location;lat;lon;timestamp;pressure;altitude;pressure_sealevel;temperature;humidity
3142;BME280;1581;51.568;6.998;2022-07-23T00:02:10;101131.44;;;19.25;100.00
3142;BME280;1581;51.568;6.998;2022-07-23T00:04:37;101135.19;;;19.24;100.00
3142;BME280;1581;51.568;6.998;2022-07-23T00:07:05;101134.59;;;19.22;100.00
3142;BME280;1581;51.568;6.998;2022-07-23T00:09:52;101131.19;;;19.27;100.00
3142;BME280;1581;51.568;6.998;2022-07-23T00:12:20;101124.72;;;19.28;100.00
3142;BME280;1581;51.568;6.998;2022-07-23T00:14:49;101126.63;;;19.27;100.00
3142;BME280;1581;51.568;6.998;2022-07-23T00:17:17;101120.63;;;19.14;100.00
3142;BME280;1581;51.568;6.998;2022-07-23T00:19:45;101116.53;;;19.11;100.00
3142;BME280;1581;51.568;6.998;2022-07-23T00:22:13;101109.22;;;19.12;100.00
3142;BME280;1581;51.568;6.998;2022-07-23T00:24:40;101127.88;;;19.02;100.00
3142;BME280;1581;51.568;6.998;2022-07-23T00:27:08;101132.56;;;19.06;100.00
3142;BME280;1581;51.568;6.998;2022-07-23T00:29:36;101128.47;;;19.04;100.00
3142;BME280;1581;51.568;6.998;2022-07-23T00:32:06;101119.41;;;18.99;100.00
3142;BME280;1581;51.568;6.998;2022-07-23T00:34:34;101118.69;;;18.92;100.00
3142;BME280;1581;51.568;6.998;2022-07-23T00:37:01;101119.78;;;18.91;100.00
3142;BME280;1581;51.568;6.998;2022-07-23T00:39:29;101120.56;;;18.91;100.00
3142;BME280;1581;51.568;6.998;2022-07-23T00:41:57;101124.63;;;19.11;100.00
3142;BME280;1581;51.568;6.998;2022-07-23T00:44:27;101124.22;;;19.08;100.00
3142;BME280;1581;51.568;6.998;2022-07-23T00:46:57;101126.13;;;18.96;100.00
3142;BME280;1581;51.568;6.998;2022-07-23T00:49:29;101127.38;;;18.94;100.00
3142;BME280;1581;51.568;6.998;2022-07-23T00:51:57;101137.63;;;19.03;100.00
3142;BME280;1581;51.568;6.998;2022-07-23T00:54:27;101128.78;;;18.85;100.00
3142;BME280;1581;51.568;6.998;2022-07-23T00:56:55;101125.97;;;18.91;100.00
3142;BME280;1581;51.568;6.998;2022-07-23T00:59:23;101120.34;;;18.81;100.00
3142;BME280;1581;51.568;6.998;2022-07-23T01:01:51;101128.09;;;18.78;100.00
3142;BME280;1581;51.568;6.998;2022-07-23T01:04:19;101123.13;;;18.75;100.00
3142;BME280;1581;51.568;6.998;2022-07-23T01:06:48;101118.69;;;18.69;100.00
3142;BME280;1581;51.568;6.998;2022-07-23T01:09:16;101125.22;;;18.73;100.00
3142;BME280;1581;51.568;6.998;2022-07-23T01:11:43;101120.22;;;18.76;100.00
3142;BME280;1581;51.568;6.998;2022-07-23T01:14:13;101125.72;;;18.70;100.00
3142;BME280;1581;51.568;6.998;2022-07-23T01:16:41;101114.34;;;18.79;100.00
3142;BME280;1581;51.568;6.998;2022-07-23T01:19:10;101119.84;;;18.73;100.00
3142;BME280;1581;51.568;6.998;2022-07-23T01:21:41;101121.22;;;18.64;100.00
3142;BME280;1581;51.568;6.998;2022-07-23T01:24:11;101135.34;;;18.77;100.00
3142;BME280;1581;51.568;6.998;2022-07-23T01:26:41;101138.53;;;18.74;100.00
3142;BME280;1581;51.568;6.998;2022-07-23T01:29:10;101123.84;;;18.70;100.00
3142;BME280;1581;51.568;6.998;2022-07-23T01:31:38;101125.13;;;18.68;100.00
3142;BME280;1581;51.568;6.998;2022-07-23T01:34:06;101120.78;;;18.67;100.00
3142;BME280;1581;51.568;6.998;2022-07-23T01:36:34;101124.31;;;18.79;100.00
3142;BME280;1581;51.568;6.998;2022-07-23T01:39:04;101122.44;;;18.68;100.00
3142;BME280;1581;51.568;6.998;2022-07-23T01:41:33;101122.06;;;18.64;100.00
3142;BME280;1581;51.568;6.998;2022-07-23T01:44:01;101123.34;;;18.62;100.00
3142;BME280;1581;51.568;6.998;2022-07-23T01:46:29;101118.69;;;18.69;100.00
3142;BME280;1581;51.568;6.998;2022-07-23T01:48:57;101117.38;;;18.60;100.00
3142;BME280;1581;51.568;6.998;2022-07-23T01:51:24;101110.78;;;18.56;100.00
3142;BME280;1581;51.568;6.998;2022-07-23T01:53:52;101102.78;;;18.49;100.00
3142;BME280;1581;51.568;6.998;2022-07-23T01:56:20;101107.25;;;18.55;100.00
3142;BME280;1581;51.568;6.998;2022-07-23T01:58:49;101101.97;;;18.60;100.00
3142;BME280;1581;51.568;6.998;2022-07-23T02:01:17;101113.81;;;18.59;100.00
3142;BME280;1581;51.568;6.998;2022-07-23T02:03:44;101113.47;;;18.56;100.00
3142;BME280;1581;51.568;6.998;2022-07-23T02:06:12;101113.03;;;18.59;100.00
3142;BME280;1581;51.568;6.998;2022-07-23T02:08:40;101114.16;;;18.51;100.00
3142;BME280;1581;51.568;6.998;2022-07-23T02:11:08;101111.91;;;18.37;100.00
3142;BME280;1581;51.568;6.998;2022-07-23T02:13:35;101119.06;;;18.43;100.00
3142;BME280;1581;51.568;6.998;2022-07-23T02:16:05;101105.34;;;18.44;100.00
3142;BME280;1581;51.568;6.998;2022-07-23T02:18:32;101106.84;;;18.40;100.00
3142;BME280;1581;51.568;6.998;2022-07-23T02:21:00;101103.56;;;18.38;100.00
3142;BME280;1581;51.568;6.998;2022-07-23T02:23:28;101102.16;;;18.36;100.00
3142;BME280;1581;51.568;6.998;2022-07-23T02:25:56;101100.06;;;18.38;100.00
3142;BME280;1581;51.568;6.998;2022-07-23T02:28:23;101110.34;;;18.29;100.00
3142;BME280;1581;51.568;6.998;2022-07-23T02:30:51;101122.19;;;18.28;100.00
3142;BME280;1581;51.568;6.998;2022-07-23T02:33:20;101116.66;;;18.23;100.00
3142;BME280;1581;51.568;6.998;2022-07-23T02:35:48;101116.19;;;18.09;100.00
3142;BME280;1581;51.568;6.998;2022-07-23T02:38:16;101115.25;;;18.03;100.00
3142;BME280;1581;51.568;6.998;2022-07-23T02:40:43;101111.31;;;18.17;100.00
3142;BME280;1581;51.568;6.998;2022-07-23T02:43:11;101101.91;;;18.08;100.00
3142;BME280;1581;51.568;6.998;2022-07-23T02:45:39;101106.91;;;18.22;100.00
3142;BME280;1581;51.568;6.998;2022-07-23T02:48:06;101104.50;;;18.14;100.00
3142;BME280;1581;51.568;6.998;2022-07-23T02:50:36;101103.31;;;18.11;100.00
3142;BME280;1581;51.568;6.998;2022-07-23T02:53:03;101102.06;;;17.95;100.00
3142;BME280;1581;51.568;6.998;2022-07-23T02:55:31;101100.25;;;18.07;100.00
3142;BME280;1581;51.568;6.998;2022-07-23T02:57:59;101099.66;;;18.05;100.00
3142;BME280;1581;51.568;6.998;2022-07-23T03:00:26;101100.63;;;18.11;100.00
3142;BME280;1581;51.568;6.998;2022-07-23T03:02:54;101102.72;;;18.09;100.00
3142;BME280;1581;51.568;6.998;2022-07-23T03:05:22;101103.22;;;18.17;100.00
3142;BME280;1581;51.568;6.998;2022-07-23T03:07:51;101097.31;;;18.09;100.00
3142;BME280;1581;51.568;6.998;2022-07-23T03:10:19;101099.66;;;18.05;100.00
3142;BME280;1581;51.568;6.998;2022-07-23T03:12:46;101093.44;;;18.05;100.00
3142;BME280;1581;51.568;6.998;2022-07-23T03:15:14;101101.03;;;17.96;100.00
3142;BME280;1581;51.568;6.998;2022-07-23T03:17:41;101103.31;;;18.11;100.00
3142;BME280;1581;51.568;6.998;2022-07-23T03:20:10;101101.19;;;18.01;100.00
3142;BME280;1581;51.568;6.998;2022-07-23T03:22:37;101090.97;;;18.03;100.00
3142;BME280;1581;51.568;6.998;2022-07-23T03:25:08;101099.38;;;17.95;100.00
3142;BME280;1581;51.568;6.998;2022-07-23T03:27:36;101099.00;;;17.92;100.00
3142;BME280;1581;51.568;6.998;2022-07-23T03:30:05;101091.81;;;18.04;100.00
3142;BME280;1581;51.568;6.998;2022-07-23T03:32:33;101090.25;;;17.96;100.00
3142;BME280;1581;51.568;6.998;2022-07-23T03:35:06;101093.34;;;17.82;100.00
3142;BME280;1581;51.568;6.998;2022-07-23T03:37:33;101100.78;;;17.68;100.00
3142;BME280;1581;51.568;6.998;2022-07-23T03:40:02;101100.16;;;17.66;100.00
3142;BME280;1581;51.568;6.998;2022-07-23T03:42:32;101095.81;;;17.65;100.00
3142;BME280;1581;51.568;6.998;2022-07-23T03:45:01;101103.31;;;17.81;100.00
3142;BME280;1581;51.568;6.998;2022-07-23T03:47:30;101099.47;;;17.71;100.00
3142;BME280;1581;51.568;6.998;2022-07-23T03:49:59;101104.75;;;17.66;100.00
3142;BME280;1581;51.568;6.998;2022-07-23T03:52:26;101090.97;;;17.74;100.00
3142;BME280;1581;51.568;6.998;2022-07-23T03:54:54;101101.75;;;17.74;100.00
3142;BME280;1581;51.568;6.998;2022-07-23T03:57:22;101104.06;;;17.70;100.00
3142;BME280;1581;51.568;6.998;2022-07-23T03:59:51;101102.22;;;17.82;100.00
3142;BME280;1581;51.568;6.998;2022-07-23T04:02:18;101108.31;;;17.78;100.00
3142;BME280;1581;51.568;6.998;2022-07-23T04:04:46;101118.34;;;17.71;100.00
3142;BME280;1581;51.568;6.998;2022-07-23T04:07:15;101117.63;;;17.64;100.00
3142;BME280;1581;51.568;6.998;2022-07-23T04:09:44;101125.34;;;17.60;100.00
3142;BME280;1581;51.568;6.998;2022-07-23T04:12:12;101119.41;;;17.70;100.00
3142;BME280;1581;51.568;6.998;2022-07-23T04:14:40;101123.13;;;17.69;100.00
3142;BME280;1581;51.568;6.998;2022-07-23T04:17:09;101126.50;;;17.46;100.00
3142;BME280;1581;51.568;6.998;2022-07-23T04:19:36;101130.13;;;17.58;100.00
3142;BME280;1581;51.568;6.998;2022-07-23T04:22:07;101128.03;;;17.60;100.00
3142;BME280;1581;51.568;6.998;2022-07-23T04:24:35;101126.16;;;17.61;100.00
3142;BME280;1581;51.568;6.998;2022-07-23T04:27:03;101125.63;;;17.70;100.00
3142;BME280;1581;51.568;6.998;2022-07-23T04:29:31;101128.91;;;17.72;100.00
3142;BME280;1581;51.568;6.998;2022-07-23T04:31:59;101130.72;;;17.78;100.00
3142;BME280;1581;51.568;6.998;2022-07-23T04:34:29;101130.09;;;17.76;100.00
3142;BME280;1581;51.568;6.998;2022-07-23T04:36:58;101142.00;;;17.69;100.00
3142;BME280;1581;51.568;6.998;2022-07-23T04:39:26;101143.81;;;17.57;100.00
3142;BME280;1581;51.568;6.998;2022-07-23T04:41:54;101143.81;;;17.57;100.00
3142;BME280;1581;51.568;6.998;2022-07-23T04:44:22;101147.56;;;17.74;100.00
3142;BME280;1581;51.568;6.998;2022-07-23T04:46:49;101144.41;;;17.77;100.00
3142;BME280;1581;51.568;6.998;2022-07-23T04:49:17;101126.97;;;17.79;100.00
3142;BME280;1581;51.568;6.998;2022-07-23T04:51:46;101141.06;;;17.81;100.00
3142;BME280;1581;51.568;6.998;2022-07-23T04:54:14;101146.34;;;17.70;100.00
3142;BME280;1581;51.568;6.998;2022-07-23T04:56:43;101147.63;;;17.67;100.00
3142;BME280;1581;51.568;6.998;2022-07-23T04:59:11;101151.75;;;17.88;100.00
3142;BME280;1581;51.568;6.998;2022-07-23T05:01:40;101153.75;;;17.92;100.00
3142;BME280;1581;51.568;6.998;2022-07-23T05:04:08;101143.16;;;17.79;100.00
3142;BME280;1581;51.568;6.998;2022-07-23T05:06:36;101144.03;;;17.73;100.00
3142;BME280;1581;51.568;6.998;2022-07-23T05:09:07;101145.06;;;17.72;100.00
3142;BME280;1581;51.568;6.998;2022-07-23T05:11:36;101148.75;;;17.78;100.00
3142;BME280;1581;51.568;6.998;2022-07-23T05:14:03;101152.81;;;17.87;100.00
3142;BME280;1581;51.568;6.998;2022-07-23T05:16:31;101166.66;;;17.90;100.00
3142;BME280;1581;51.568;6.998;2022-07-23T05:18:59;101168.00;;;17.99;100.00
3142;BME280;1581;51.568;6.998;2022-07-23T05:21:26;101168.72;;;18.06;100.00
3142;BME280;1581;51.568;6.998;2022-07-23T05:23:55;101170.16;;;18.09;100.00
3142;BME280;1581;51.568;6.998;2022-07-23T05:26:25;101168.97;;;18.05;100.00
3142;BME280;1581;51.568;6.998;2022-07-23T05:28:52;101164.25;;;18.00;100.00
3142;BME280;1581;51.568;6.998;2022-07-23T05:31:20;101156.97;;;18.01;100.00
3142;BME280;1581;51.568;6.998;2022-07-23T05:33:48;101164.38;;;18.05;100.00
3142;BME280;1581;51.568;6.998;2022-07-23T05:36:15;101171.13;;;18.14;100.00
3142;BME280;1581;51.568;6.998;2022-07-23T05:38:43;101172.41;;;18.12;100.00
3142;BME280;1581;51.568;6.998;2022-07-23T05:41:11;101175.19;;;18.05;100.00
3142;BME280;1581;51.568;6.998;2022-07-23T05:43:40;101173.69;;;18.09;100.00
3142;BME280;1581;51.568;6.998;2022-07-23T05:46:09;101185.28;;;18.27;100.00
3142;BME280;1581;51.568;6.998;2022-07-23T05:48:36;101184.47;;;18.27;100.00
3142;BME280;1581;51.568;6.998;2022-07-23T05:51:04;101186.84;;;18.17;100.00
3142;BME280;1581;51.568;6.998;2022-07-23T05:53:33;101181.47;;;18.35;100.00
3142;BME280;1581;51.568;6.998;2022-07-23T05:56:02;101187.22;;;18.38;100.00
3142;BME280;1581;51.568;6.998;2022-07-23T05:58:30;101184.88;;;18.42;100.00
3142;BME280;1581;51.568;6.998;2022-07-23T06:00:59;101182.06;;;18.37;100.00
3142;BME280;1581;51.568;6.998;2022-07-23T06:03:26;101188.06;;;18.39;100.00
3142;BME280;1581;51.568;6.998;2022-07-23T06:05:55;101188.00;;;18.57;100.00
3142;BME280;1581;51.568;6.998;2022-07-23T06:08:23;101190.69;;;18.57;100.00
3142;BME280;1581;51.568;6.998;2022-07-23T06:10:51;101187.75;;;18.58;100.00
3142;BME280;1581;51.568;6.998;2022-07-23T06:13:19;101198.81;;;18.57;100.00
3142;BME280;1581;51.568;6.998;2022-07-23T06:15:47;101201.41;;;18.63;100.00
3142;BME280;1581;51.568;6.998;2022-07-23T06:18:16;101198.25;;;18.66;100.00
3142;BME280;1581;51.568;6.998;2022-07-23T06:20:44;101191.09;;;18.72;100.00
3142;BME280;1581;51.568;6.998;2022-07-23T06:23:12;101195.13;;;18.81;100.00
3142;BME280;1581;51.568;6.998;2022-07-23T06:25:40;101197.97;;;18.97;100.00
3142;BME280;1581;51.568;6.998;2022-07-23T06:28:08;101204.06;;;18.93;100.00
3142;BME280;1581;51.568;6.998;2022-07-23T06:30:36;101214.31;;;18.91;100.00
3142;BME280;1581;51.568;6.998;2022-07-23T06:33:04;101208.41;;;18.94;100.00
3142;BME280;1581;51.568;6.998;2022-07-23T06:35:33;101221.56;;;19.01;100.00
3142;BME280;1581;51.568;6.998;2022-07-23T06:38:01;101221.38;;;19.03;100.00
3142;BME280;1581;51.568;6.998;2022-07-23T06:40:29;101213.25;;;19.03;100.00
3142;BME280;1581;51.568;6.998;2022-07-23T06:42:57;101212.56;;;19.07;100.00
3142;BME280;1581;51.568;6.998;2022-07-23T06:45:25;101214.22;;;19.08;100.00
3142;BME280;1581;51.568;6.998;2022-07-23T06:47:53;101218.84;;;19.19;100.00
3142;BME280;1581;51.568;6.998;2022-07-23T06:50:21;101221.41;;;19.14;100.00
3142;BME280;1581;51.568;6.998;2022-07-23T06:52:51;101216.16;;;19.19;100.00
3142;BME280;1581;51.568;6.998;2022-07-23T06:55:24;101220.34;;;19.15;100.00
3142;BME280;1581;51.568;6.998;2022-07-23T06:57:52;101222.25;;;19.15;100.00
3142;BME280;1581;51.568;6.998;2022-07-23T07:00:20;101223.41;;;19.19;100.00
3142;BME280;1581;51.568;6.998;2022-07-23T07:02:49;101220.59;;;19.25;100.00
3142;BME280;1581;51.568;6.998;2022-07-23T07:05:17;101224.50;;;19.29;100.00
3142;BME280;1581;51.568;6.998;2022-07-23T07:07:46;101228.63;;;19.43;100.00
3142;BME280;1581;51.568;6.998;2022-07-23T07:10:15;101230.75;;;19.41;100.00
3142;BME280;1581;51.568;6.998;2022-07-23T07:12:43;101235.56;;;19.39;100.00
3142;BME280;1581;51.568;6.998;2022-07-23T07:15:11;101231.81;;;19.40;100.00
3142;BME280;1581;51.568;6.998;2022-07-23T07:17:39;101230.16;;;19.51;100.00
3142;BME280;1581;51.568;6.998;2022-07-23T07:20:10;101235.44;;;19.57;100.00
3142;BME280;1581;51.568;6.998;2022-07-23T07:22:37;101232.03;;;19.62;100.00
3142;BME280;1581;51.568;6.998;2022-07-23T07:25:06;101235.34;;;19.64;100.00
3142;BME280;1581;51.568;6.998;2022-07-23T07:27:35;101233.78;;;19.68;100.00
3142;BME280;1581;51.568;6.998;2022-07-23T07:30:05;101238.97;;;19.69;100.00
3142;BME280;1581;51.568;6.998;2022-07-23T07:32:33;101241.31;;;19.77;100.00
3142;BME280;1581;51.568;6.998;2022-07-23T07:35:03;101247.53;;;19.78;100.00
3142;BME280;1581;51.568;6.998;2022-07-23T07:37:32;101248.50;;;19.72;100.00
3142;BME280;1581;51.568;6.998;2022-07-23T07:40:00;101241.78;;;19.86;100.00
3142;BME280;1581;51.568;6.998;2022-07-23T07:42:27;101245.56;;;19.85;100.00
3142;BME280;1581;51.568;6.998;2022-07-23T07:44:56;101251.56;;;19.98;100.00
3142;BME280;1581;51.568;6.998;2022-07-23T07:47:24;101254.88;;;20.00;100.00
3142;BME280;1581;51.568;6.998;2022-07-23T07:49:51;101268.25;;;19.95;100.00
3142;BME280;1581;51.568;6.998;2022-07-23T07:52:19;101264.38;;;19.91;100.00
3142;BME280;1581;51.568;6.998;2022-07-23T07:54:47;101262.22;;;19.93;100.00
3142;BME280;1581;51.568;6.998;2022-07-23T07:57:14;101259.44;;;19.99;100.00
3142;BME280;1581;51.568;6.998;2022-07-23T07:59:42;101255.94;;;19.99;100.00
3142;BME280;1581;51.568;6.998;2022-07-23T08:02:11;101270.59;;;20.14;100.00
3142;BME280;1581;51.568;6.998;2022-07-23T08:04:38;101270.56;;;20.26;100.00
3142;BME280;1581;51.568;6.998;2022-07-23T08:07:06;101273.41;;;20.31;100.00
3142;BME280;1581;51.568;6.998;2022-07-23T08:09:35;101262.84;;;20.18;100.00
3142;BME280;1581;51.568;6.998;2022-07-23T08:12:21;101276.00;;;20.26;100.00
3142;BME280;1581;51.568;6.998;2022-07-23T08:14:53;101284.69;;;20.28;100.00
3142;BME280;1581;51.568;6.998;2022-07-23T08:17:23;101286.47;;;20.22;100.00
3142;BME280;1581;51.568;6.998;2022-07-23T08:19:51;101288.47;;;20.27;100.00
3142;BME280;1581;51.568;6.998;2022-07-23T08:22:19;101284.56;;;20.34;100.00
3142;BME280;1581;51.568;6.998;2022-07-23T08:24:47;101284.78;;;20.33;100.00
3142;BME280;1581;51.568;6.998;2022-07-23T08:27:14;101293.63;;;20.40;100.00
3142;BME280;1581;51.568;6.998;2022-07-23T08:29:42;101298.28;;;20.56;100.00
3142;BME280;1581;51.568;6.998;2022-07-23T08:32:10;101305.66;;;20.83;100.00
3142;BME280;1581;51.568;6.998;2022-07-23T08:34:39;101307.28;;;20.84;100.00
3142;BME280;1581;51.568;6.998;2022-07-23T08:37:06;101308.78;;;20.91;100.00
3142;BME280;1581;51.568;6.998;2022-07-23T08:39:35;101304.06;;;20.98;100.00
3142;BME280;1581;51.568;6.998;2022-07-23T08:42:04;101302.13;;;21.10;100.00
3142;BME280;1581;51.568;6.998;2022-07-23T08:44:31;101304.44;;;21.18;100.00
3142;BME280;1581;51.568;6.998;2022-07-23T08:47:00;101296.63;;;21.22;100.00
3142;BME280;1581;51.568;6.998;2022-07-23T08:49:29;101304.25;;;21.08;100.00
3142;BME280;1581;51.568;6.998;2022-07-23T08:51:58;101301.19;;;21.21;100.00
3142;BME280;1581;51.568;6.998;2022-07-23T08:54:26;101299.00;;;21.18;100.00
3142;BME280;1581;51.568;6.998;2022-07-23T08:56:54;101295.97;;;21.31;100.00
3142;BME280;1581;51.568;6.998;2022-07-23T08:59:22;101308.84;;;21.24;100.00
3142;BME280;1581;51.568;6.998;2022-07-23T09:01:49;101301.13;;;21.16;100.00
3142;BME280;1581;51.568;6.998;2022-07-23T09:04:17;101304.44;;;21.18;100.00
3142;BME280;1581;51.568;6.998;2022-07-23T09:06:45;101302.22;;;21.32;100.00
3142;BME280;1581;51.568;6.998;2022-07-23T09:09:23;101306.63;;;21.21;100.00
3142;BME280;1581;51.568;6.998;2022-07-23T09:12:03;101303.38;;;21.19;100.00
3142;BME280;1581;51.568;6.998;2022-07-23T09:14:40;101305.75;;;21.32;100.00
3142;BME280;1581;51.568;6.998;2022-07-23T09:17:11;101303.78;;;21.44;100.00
3142;BME280;1581;51.568;6.998;2022-07-23T09:19:42;101298.38;;;21.44;100.00
3142;BME280;1581;51.568;6.998;2022-07-23T09:22:21;101300.66;;;21.52;100.00
3142;BME280;1581;51.568;6.998;2022-07-23T09:25:09;101315.31;;;21.67;100.00
3142;BME280;1581;51.568;6.998;2022-07-23T09:27:59;101307.88;;;21.74;100.00
3142;BME280;1581;51.568;6.998;2022-07-23T09:30:35;101317.06;;;21.90;100.00
3142;BME280;1581;51.568;6.998;2022-07-23T09:33:07;101314.00;;;21.86;100.00
3142;BME280;1581;51.568;6.998;2022-07-23T09:35:49;101309.84;;;21.79;100.00
3142;BME280;1581;51.568;6.998;2022-07-23T09:38:18;101321.28;;;21.81;100.00
3142;BME280;1581;51.568;6.998;2022-07-23T09:41:07;101317.81;;;21.85;100.00
3142;BME280;1581;51.568;6.998;2022-07-23T09:43:34;101309.72;;;22.07;100.00
3142;BME280;1581;51.568;6.998;2022-07-23T09:46:19;101309.59;;;22.18;100.00
3142;BME280;1581;51.568;6.998;2022-07-23T09:48:49;101312.22;;;22.30;100.00
3142;BME280;1581;51.568;6.998;2022-07-23T09:51:17;101307.72;;;22.35;100.00
3142;BME280;1581;51.568;6.998;2022-07-23T09:53:47;101307.97;;;22.55;100.00
3142;BME280;1581;51.568;6.998;2022-07-23T09:56:17;101305.88;;;22.62;100.00
3142;BME280;1581;51.568;6.998;2022-07-23T09:58:50;101309.53;;;22.72;100.00
3142;BME280;1581;51.568;6.998;2022-07-23T10:01:28;101313.22;;;22.88;100.00
3142;BME280;1581;51.568;6.998;2022-07-23T10:03:56;101306.22;;;22.92;99.67
3142;BME280;1581;51.568;6.998;2022-07-23T10:06:24;101314.09;;;22.93;98.59
3142;BME280;1581;51.568;6.998;2022-07-23T10:08:56;101312.97;;;23.11;98.20
3142;BME280;1581;51.568;6.998;2022-07-23T10:11:27;101318.72;;;23.14;97.86
3142;BME280;1581;51.568;6.998;2022-07-23T10:13:57;101317.94;;;23.19;97.25
3142;BME280;1581;51.568;6.998;2022-07-23T10:16:25;101315.63;;;23.32;96.60
3142;BME280;1581;51.568;6.998;2022-07-23T10:18:54;101306.25;;;23.45;97.49
3142;BME280;1581;51.568;6.998;2022-07-23T10:21:30;101313.72;;;23.59;95.09
3142;BME280;1581;51.568;6.998;2022-07-23T10:24:12;101316.53;;;23.74;93.97
3142;BME280;1581;51.568;6.998;2022-07-23T10:26:54;101310.91;;;23.80;92.05
3142;BME280;1581;51.568;6.998;2022-07-23T10:29:42;101313.19;;;23.93;94.50
3142;BME280;1581;51.568;6.998;2022-07-23T10:32:26;101318.47;;;24.10;94.85
3142;BME280;1581;51.568;6.998;2022-07-23T10:35:04;101314.19;;;24.24;91.74
3142;BME280;1581;51.568;6.998;2022-07-23T10:37:39;101314.28;;;24.43;89.85
3142;BME280;1581;51.568;6.998;2022-07-23T10:40:12;101318.22;;;24.62;90.65
3142;BME280;1581;51.568;6.998;2022-07-23T10:42:46;101307.94;;;24.79;90.11
3142;BME280;1581;51.568;6.998;2022-07-23T10:45:27;101316.44;;;24.93;88.38
3142;BME280;1581;51.568;6.998;2022-07-23T10:47:55;101314.53;;;24.88;85.20
3142;BME280;1581;51.568;6.998;2022-07-23T10:50:40;101312.09;;;25.07;85.77
3142;BME280;1581;51.568;6.998;2022-07-23T10:53:16;101311.63;;;25.25;85.80
3142;BME280;1581;51.568;6.998;2022-07-23T10:55:48;101313.00;;;25.42;84.04
3142;BME280;1581;51.568;6.998;2022-07-23T10:58:44;101317.38;;;25.48;84.23
3142;BME280;1581;51.568;6.998;2022-07-23T11:01:34;101315.75;;;25.37;81.46
3142;BME280;1581;51.568;6.998;2022-07-23T11:04:05;101318.75;;;25.45;81.53
3142;BME280;1581;51.568;6.998;2022-07-23T11:07:08;101323.13;;;25.61;81.79
3142;BME280;1581;51.568;6.998;2022-07-23T11:09:41;101318.22;;;25.63;81.51
3142;BME280;1581;51.568;6.998;2022-07-23T11:12:34;101322.31;;;25.86;78.41
3142;BME280;1581;51.568;6.998;2022-07-23T11:15:08;101315.97;;;26.20;78.97
3142;BME280;1581;51.568;6.998;2022-07-23T11:17:39;101319.78;;;26.19;77.18
3142;BME280;1581;51.568;6.998;2022-07-23T11:20:26;101319.75;;;26.39;75.43
3142;BME280;1581;51.568;6.998;2022-07-23T11:22:57;101310.72;;;26.48;71.73
3142;BME280;1581;51.568;6.998;2022-07-23T11:25:35;101315.63;;;26.51;72.19
3142;BME280;1581;51.568;6.998;2022-07-23T11:28:15;101308.25;;;26.47;72.07
3142;BME280;1581;51.568;6.998;2022-07-23T11:30:48;101320.03;;;26.42;70.94
3142;BME280;1581;51.568;6.998;2022-07-23T11:33:21;101313.22;;;26.30;70.54
3142;BME280;1581;51.568;6.998;2022-07-23T11:36:01;101317.31;;;26.22;68.04
3142;BME280;1581;51.568;6.998;2022-07-23T11:38:31;101308.00;;;26.33;71.16
3142;BME280;1581;51.568;6.998;2022-07-23T11:41:00;101312.94;;;26.46;69.59
3142;BME280;1581;51.568;6.998;2022-07-23T11:43:28;101315.09;;;26.49;69.99
3142;BME280;1581;51.568;6.998;2022-07-23T11:46:00;101310.16;;;26.51;66.19
3142;BME280;1581;51.568;6.998;2022-07-23T11:48:30;101308.19;;;26.67;67.66
3142;BME280;1581;51.568;6.998;2022-07-23T11:50:59;101317.97;;;26.83;66.74
3142;BME280;1581;51.568;6.998;2022-07-23T11:53:31;101311.97;;;26.76;64.77
3142;BME280;1581;51.568;6.998;2022-07-23T11:56:05;101317.94;;;26.88;63.64
3142;BME280;1581;51.568;6.998;2022-07-23T11:58:36;101319.91;;;26.77;61.63
3142;BME280;1581;51.568;6.998;2022-07-23T12:01:06;101320.91;;;26.96;62.92
3142;BME280;1581;51.568;6.998;2022-07-23T12:03:33;101317.31;;;27.05;64.26
3142;BME280;1581;51.568;6.998;2022-07-23T12:06:02;101315.59;;;27.19;62.95
3142;BME280;1581;51.568;6.998;2022-07-23T12:08:30;101317.63;;;27.37;61.22
3142;BME280;1581;51.568;6.998;2022-07-23T12:10:58;101314.91;;;27.76;57.82
3142;BME280;1581;51.568;6.998;2022-07-23T12:13:25;101317.75;;;27.94;53.83
3142;BME280;1581;51.568;6.998;2022-07-23T12:15:57;101311.91;;;27.34;57.50
3142;BME280;1581;51.568;6.998;2022-07-23T12:18:27;101298.22;;;27.39;61.04
3142;BME280;1581;51.568;6.998;2022-07-23T12:20:57;101316.53;;;29.72;52.77
3142;BME280;1581;51.568;6.998;2022-07-23T12:23:30;101326.06;;;34.11;38.94
3142;BME280;1581;51.568;6.998;2022-07-23T12:26:02;101325.72;;;35.16;36.40
3142;BME280;1581;51.568;6.998;2022-07-23T12:28:32;101314.44;;;31.52;45.53
3142;BME280;1581;51.568;6.998;2022-07-23T12:31:04;101308.84;;;29.87;49.86
3142;BME280;1581;51.568;6.998;2022-07-23T12:33:36;101309.06;;;29.41;49.13
3142;BME280;1581;51.568;6.998;2022-07-23T12:36:08;101310.19;;;29.21;50.88
3142;BME280;1581;51.568;6.998;2022-07-23T12:38:40;101308.31;;;29.17;50.38
3142;BME280;1581;51.568;6.998;2022-07-23T12:41:08;101304.38;;;29.23;51.46
3142;BME280;1581;51.568;6.998;2022-07-23T12:43:38;101303.22;;;29.29;51.30
3142;BME280;1581;51.568;6.998;2022-07-23T12:46:10;101295.47;;;29.31;53.11
3142;BME280;1581;51.568;6.998;2022-07-23T12:48:49;101298.50;;;29.29;51.65
3142;BME280;1581;51.568;6.998;2022-07-23T12:51:21;101307.81;;;29.15;52.78
3142;BME280;1581;51.568;6.998;2022-07-23T12:53:53;101304.75;;;28.98;51.81
3142;BME280;1581;51.568;6.998;2022-07-23T12:56:29;101303.66;;;28.99;54.59
3142;BME280;1581;51.568;6.998;2022-07-23T12:59:04;101308.81;;;28.82;55.82
3142;BME280;1581;51.568;6.998;2022-07-23T13:01:34;101313.84;;;28.52;55.64
3142;BME280;1581;51.568;6.998;2022-07-23T13:04:07;101307.38;;;28.14;56.15
3142;BME280;1581;51.568;6.998;2022-07-23T13:06:38;101309.75;;;27.69;56.85
3142;BME280;1581;51.568;6.998;2022-07-23T13:09:11;101311.31;;;27.80;58.10
3142;BME280;1581;51.568;6.998;2022-07-23T13:11:49;101312.78;;;27.96;60.13
3142;BME280;1581;51.568;6.998;2022-07-23T13:14:20;101313.53;;;28.01;57.97
3142;BME280;1581;51.568;6.998;2022-07-23T13:16:49;101316.13;;;27.93;56.98
3142;BME280;1581;51.568;6.998;2022-07-23T13:19:20;101315.19;;;28.02;56.43